Yasemin — 9HA2114 — position and weather

sailwx.info

Track history (hours):
 
Tides and Currents Weather Stations Pressure Air Temp Water Temp Dewpoint Dewpoint Depression Visibility Wind Speed Wind Dir Waves Ship Positions

Yasemin

Last reported at 2014-Nov-23 07:34 UTC. Time now 2014-Nov-23 09:59 UTC.
Position N 38°30' E 012°51'.

Length 105 m; draft 6.4 m.

Type: Cargo ship. MMSI: 249988000.

Date/timePositionNaut miles runAvg speedWind from/ knotsBaromVisibWave heightAir tempDewpointWater temp
2014-Nov-23 07:34N 38°30' E 012°51'1212.1
2014-Nov-23 06:33N 38°29' E 013°07'1212.3
2014-Nov-23 05:33N 38°28' E 013°22'1212.2
2014-Nov-23 04:33N 38°26' E 013°38'10910.6
2014-Nov-22 18:14N 37°52' E 015°50'38910.8
2014-Nov-21 06:17N 37°26' E 023°60'1013.4
2014-Nov-21 05:33N 37°34' E 024°06'1413.5
2014-Nov-21 04:33N 37°44' E 024°17'1313.1
2014-Nov-21 03:33N 37°53' E 024°29'  
Track history (hours):
 
Tides and Currents Weather Stations Pressure Air Temp Water Temp Dewpoint Dewpoint Depression Visibility Wind Speed Wind Dir Waves Ship Positions

Yasemin

Last reported at 2014-Nov-23 07:34 UTC. Time now 2014-Nov-23 09:59 UTC.
Position N 38°30' E 012°51'.

Length 105 m; draft 6.4 m.

Type: Cargo ship. MMSI: 249988000.

Date/timePositionNaut miles runAvg speedWind from/ knotsBaromVisibWave heightAir tempDewpointWater temp
2014-Nov-23 07:34N 38°30' E 012°51'1212.1
2014-Nov-23 06:33N 38°29' E 013°07'1212.3
2014-Nov-23 05:33N 38°28' E 013°22'1212.2
2014-Nov-23 04:33N 38°26' E 013°38'10910.6
2014-Nov-22 18:14N 37°52' E 015°50'38910.8
2014-Nov-21 06:17N 37°26' E 023°60'1013.4
2014-Nov-21 05:33N 37°34' E 024°06'1413.5
2014-Nov-21 04:33N 37°44' E 024°17'1313.1
2014-Nov-21 03:33N 37°53' E 024°29'  

Dump ship's entire track history